sensor_id;sensor_type;location;lat;lon;timestamp;pressure;altitude;pressure_sealevel;temperature;humidity
72636;BME280;60679;48.888;15.544;2023-03-24T00:01:59;95670.53;;;12.53;51.35
72636;BME280;60679;48.888;15.544;2023-03-24T00:04:25;95666.94;;;12.47;51.29
72636;BME280;60679;48.888;15.544;2023-03-24T00:06:52;95670.94;;;12.45;51.36
72636;BME280;60679;48.888;15.544;2023-03-24T00:09:18;95670.06;;;12.39;51.54
72636;BME280;60679;48.888;15.544;2023-03-24T00:11:44;95666.22;;;12.35;51.66
72636;BME280;60679;48.888;15.544;2023-03-24T00:14:10;95670.00;;;12.34;51.92
72636;BME280;60679;48.888;15.544;2023-03-24T00:16:39;95661.88;;;12.34;51.74
72636;BME280;60679;48.888;15.544;2023-03-24T00:19:10;95661.88;;;12.34;51.90
72636;BME280;60679;48.888;15.544;2023-03-24T00:21:38;95657.44;;;12.28;52.55
72636;BME280;60679;48.888;15.544;2023-03-24T00:24:05;95648.44;;;12.23;52.33
72636;BME280;60679;48.888;15.544;2023-03-24T00:26:32;95651.41;;;12.21;52.22
72636;BME280;60679;48.888;15.544;2023-03-24T00:28:58;95645.72;;;12.23;52.56
72636;BME280;60679;48.888;15.544;2023-03-24T00:31:23;95650.91;;;12.24;52.57
72636;BME280;60679;48.888;15.544;2023-03-24T00:33:49;95644.91;;;12.22;52.57
72636;BME280;60679;48.888;15.544;2023-03-24T00:36:19;95653.28;;;12.21;52.78
72636;BME280;60679;48.888;15.544;2023-03-24T00:38:45;95658.13;;;12.19;52.78
72636;BME280;60679;48.888;15.544;2023-03-24T00:41:12;95645.44;;;12.19;53.06
72636;BME280;60679;48.888;15.544;2023-03-24T00:43:38;95648.19;;;12.24;52.79
72636;BME280;60679;48.888;15.544;2023-03-24T00:46:08;95649.81;;;12.25;52.83
72636;BME280;60679;48.888;15.544;2023-03-24T00:48:36;95645.44;;;12.19;53.08
72636;BME280;60679;48.888;15.544;2023-03-24T00:51:04;95644.53;;;12.13;53.12
72636;BME280;60679;48.888;15.544;2023-03-24T00:53:32;95637.16;;;12.09;53.19
72636;BME280;60679;48.888;15.544;2023-03-24T00:55:59;95634.44;;;12.09;53.44
72636;BME280;60679;48.888;15.544;2023-03-24T00:58:25;95639.03;;;12.08;53.52
72636;BME280;60679;48.888;15.544;2023-03-24T01:00:53;95632.00;;;12.07;53.33
72636;BME280;60679;48.888;15.544;2023-03-24T01:03:20;95631.91;;;12.02;53.78
72636;BME280;60679;48.888;15.544;2023-03-24T01:05:47;95625.03;;;11.95;53.78
72636;BME280;60679;48.888;15.544;2023-03-24T01:08:17;95627.25;;;11.98;53.91
72636;BME280;60679;48.888;15.544;2023-03-24T01:10:48;95622.72;;;12.03;54.00
72636;BME280;60679;48.888;15.544;2023-03-24T01:13:26;95618.69;;;12.06;53.81
72636;BME280;60679;48.888;15.544;2023-03-24T01:15:54;95613.28;;;12.06;53.84
72636;BME280;60679;48.888;15.544;2023-03-24T01:18:21;95604.59;;;12.04;53.74
72636;BME280;60679;48.888;15.544;2023-03-24T01:20:48;95612.16;;;12.02;54.18
72636;BME280;60679;48.888;15.544;2023-03-24T01:23:20;95612.38;;;12.00;54.36
72636;BME280;60679;48.888;15.544;2023-03-24T01:25:47;95603.44;;;12.00;54.02
72636;BME280;60679;48.888;15.544;2023-03-24T01:28:16;95601.50;;;11.95;54.45
72636;BME280;60679;48.888;15.544;2023-03-24T01:30:43;95610.38;;;11.91;54.61
72636;BME280;60679;48.888;15.544;2023-03-24T01:33:09;95604.63;;;11.87;54.61
72636;BME280;60679;48.888;15.544;2023-03-24T01:35:35;95606.44;;;11.82;54.75
72636;BME280;60679;48.888;15.544;2023-03-24T01:38:09;95606.94;;;11.79;54.93
72636;BME280;60679;48.888;15.544;2023-03-24T01:40:39;95612.56;;;11.77;54.97
72636;BME280;60679;48.888;15.544;2023-03-24T01:43:09;95597.66;;;11.75;55.09
72636;BME280;60679;48.888;15.544;2023-03-24T01:49:05;95594.66;;;11.71;55.39
72636;BME280;60679;48.888;15.544;2023-03-24T01:51:42;95595.91;;;11.69;55.37
72636;BME280;60679;48.888;15.544;2023-03-24T01:54:19;95596.16;;;11.67;55.41
72636;BME280;60679;48.888;15.544;2023-03-24T01:57:08;95598.06;;;11.67;55.71
72636;BME280;60679;48.888;15.544;2023-03-24T01:59:38;95594.53;;;11.66;55.74
72636;BME280;60679;48.888;15.544;2023-03-24T02:02:04;95587.22;;;11.67;55.74
72636;BME280;60679;48.888;15.544;2023-03-24T02:04:33;95589.59;;;11.63;55.84
72636;BME280;60679;48.888;15.544;2023-03-24T02:07:12;95575.69;;;11.54;55.89
72636;BME280;60679;48.888;15.544;2023-03-24T02:09:38;95579.13;;;11.50;56.27
72636;BME280;60679;48.888;15.544;2023-03-24T02:12:04;95577.66;;;11.42;56.50
72636;BME280;60679;48.888;15.544;2023-03-24T02:14:29;95572.97;;;11.38;56.43
72636;BME280;60679;48.888;15.544;2023-03-24T02:17:05;95571.25;;;11.32;56.66
72636;BME280;60679;48.888;15.544;2023-03-24T02:30:25;95563.72;;;11.50;57.01
72636;BME280;60679;48.888;15.544;2023-03-24T02:35:43;95564.28;;;11.52;57.19
72636;BME280;60679;48.888;15.544;2023-03-24T02:50:17;95552.91;;;11.50;57.43
72636;BME280;60679;48.888;15.544;2023-03-24T02:55:37;95551.03;;;11.51;57.75
72636;BME280;60679;48.888;15.544;2023-03-24T02:58:47;95544.53;;;11.52;57.68
72636;BME280;60679;48.888;15.544;2023-03-24T03:01:18;95535.94;;;11.55;57.70
72636;BME280;60679;48.888;15.544;2023-03-24T03:03:57;95540.03;;;11.57;57.97
72636;BME280;60679;48.888;15.544;2023-03-24T03:06:32;95525.94;;;11.55;57.99
72636;BME280;60679;48.888;15.544;2023-03-24T03:09:03;95518.34;;;11.52;58.02
72636;BME280;60679;48.888;15.544;2023-03-24T03:11:32;95516.72;;;11.51;58.12
72636;BME280;60679;48.888;15.544;2023-03-24T03:14:08;95515.78;;;11.46;58.05
72636;BME280;60679;48.888;15.544;2023-03-24T03:16:50;95501.47;;;11.45;58.27
72636;BME280;60679;48.888;15.544;2023-03-24T03:19:19;95502.28;;;11.46;58.41
72636;BME280;60679;48.888;15.544;2023-03-24T03:21:47;95506.06;;;11.45;58.39
72636;BME280;60679;48.888;15.544;2023-03-24T03:24:20;95506.06;;;11.45;58.31
72636;BME280;60679;48.888;15.544;2023-03-24T03:26:54;95510.97;;;11.48;58.56
72636;BME280;60679;48.888;15.544;2023-03-24T03:29:25;95506.97;;;11.50;58.56
72636;BME280;60679;48.888;15.544;2023-03-24T03:32:00;95499.91;;;11.49;58.40
72636;BME280;60679;48.888;15.544;2023-03-24T03:40:32;95498.28;;;11.15;59.00
72636;BME280;60679;48.888;15.544;2023-03-24T03:42:55;95489.63;;;11.13;59.17
72636;BME280;60679;48.888;15.544;2023-03-24T03:45:21;95482.91;;;11.16;59.03
72636;BME280;60679;48.888;15.544;2023-03-24T03:47:47;95482.06;;;11.15;59.16
72636;BME280;60679;48.888;15.544;2023-03-24T03:50:13;95488.56;;;11.14;59.20
72636;BME280;60679;48.888;15.544;2023-03-24T03:52:39;95483.88;;;11.10;59.20
72636;BME280;60679;48.888;15.544;2023-03-24T03:55:06;95487.06;;;11.07;59.35
72636;BME280;60679;48.888;15.544;2023-03-24T03:57:34;95488.97;;;11.06;59.29
72636;BME280;60679;48.888;15.544;2023-03-24T04:00:02;95485.13;;;11.02;59.42
72636;BME280;60679;48.888;15.544;2023-03-24T04:10:42;95482.91;;;10.99;59.61
72636;BME280;60679;48.888;15.544;2023-03-24T04:19:24;95480.13;;;10.77;59.69
72636;BME280;60679;48.888;15.544;2023-03-24T04:22:24;95476.50;;;10.72;59.83
72636;BME280;60679;48.888;15.544;2023-03-24T04:28:04;95480.59;;;10.58;60.12
72636;BME280;60679;48.888;15.544;2023-03-24T04:33:29;95461.31;;;10.37;60.47
72636;BME280;60679;48.888;15.544;2023-03-24T04:36:21;95465.53;;;10.33;60.64
72636;BME280;60679;48.888;15.544;2023-03-24T04:38:52;95459.84;;;10.30;60.51
72636;BME280;60679;48.888;15.544;2023-03-24T04:41:20;95450.56;;;10.26;60.73
72636;BME280;60679;48.888;15.544;2023-03-24T04:43:47;95446.22;;;10.25;60.71
72636;BME280;60679;48.888;15.544;2023-03-24T04:46:13;95433.09;;;10.28;60.54
72636;BME280;60679;48.888;15.544;2023-03-24T04:48:45;95431.28;;;10.34;60.67
72636;BME280;60679;48.888;15.544;2023-03-24T04:51:13;95432.53;;;10.43;60.39
72636;BME280;60679;48.888;15.544;2023-03-24T04:53:39;95437.47;;;10.63;60.56
72636;BME280;60679;48.888;15.544;2023-03-24T04:58:36;95434.94;;;10.89;60.19
72636;BME280;60679;48.888;15.544;2023-03-24T05:01:02;95442.66;;;10.97;59.87
72636;BME280;60679;48.888;15.544;2023-03-24T05:03:27;95439.19;;;11.02;59.74
72636;BME280;60679;48.888;15.544;2023-03-24T05:05:53;95440.09;;;11.08;59.54
72636;BME280;60679;48.888;15.544;2023-03-24T05:08:20;95442.22;;;11.06;59.74
72636;BME280;60679;48.888;15.544;2023-03-24T05:10:45;95438.44;;;11.07;59.48
72636;BME280;60679;48.888;15.544;2023-03-24T05:13:11;95449.00;;;11.08;59.44
72636;BME280;60679;48.888;15.544;2023-03-24T05:15:37;95455.66;;;11.00;59.55
72636;BME280;60679;48.888;15.544;2023-03-24T05:18:05;95449.84;;;10.92;59.61
72636;BME280;60679;48.888;15.544;2023-03-24T05:20:31;95454.16;;;10.93;59.64
72636;BME280;60679;48.888;15.544;2023-03-24T05:22:57;95454.44;;;10.91;59.66
72636;BME280;60679;48.888;15.544;2023-03-24T05:25:22;95453.84;;;10.89;59.58
72636;BME280;60679;48.888;15.544;2023-03-24T05:27:48;95452.28;;;10.93;59.59
72636;BME280;60679;48.888;15.544;2023-03-24T05:30:14;95455.81;;;10.94;59.34
72636;BME280;60679;48.888;15.544;2023-03-24T05:32:40;95462.19;;;10.88;59.33
72636;BME280;60679;48.888;15.544;2023-03-24T05:35:06;95448.63;;;10.83;59.53
72636;BME280;60679;48.888;15.544;2023-03-24T05:37:31;95455.31;;;10.80;59.52
72636;BME280;60679;48.888;15.544;2023-03-24T05:39:57;95459.00;;;10.74;59.51
72636;BME280;60679;48.888;15.544;2023-03-24T05:42:22;95452.44;;;10.70;59.51
72636;BME280;60679;48.888;15.544;2023-03-24T05:44:48;95455.06;;;10.65;59.74
72636;BME280;60679;48.888;15.544;2023-03-24T05:47:14;95459.06;;;10.63;59.64
72636;BME280;60679;48.888;15.544;2023-03-24T05:49:44;95452.13;;;10.67;59.77
72636;BME280;60679;48.888;15.544;2023-03-24T05:52:11;95457.13;;;10.75;59.81
72636;BME280;60679;48.888;15.544;2023-03-24T05:54:37;95457.19;;;10.80;59.57
72636;BME280;60679;48.888;15.544;2023-03-24T05:57:05;95454.34;;;10.86;59.58
72636;BME280;60679;48.888;15.544;2023-03-24T05:59:33;95449.59;;;10.93;59.41
72636;BME280;60679;48.888;15.544;2023-03-24T06:02:00;95441.06;;;11.01;59.31
72636;BME280;60679;48.888;15.544;2023-03-24T06:04:26;95440.56;;;11.21;59.24
72636;BME280;60679;48.888;15.544;2023-03-24T06:06:58;95427.09;;;11.43;59.16
72636;BME280;60679;48.888;15.544;2023-03-24T06:09:28;95434.41;;;11.64;58.89
72636;BME280;60679;48.888;15.544;2023-03-24T06:12:00;95436.75;;;11.77;58.57
72636;BME280;60679;48.888;15.544;2023-03-24T06:14:25;95424.75;;;11.90;58.33
72636;BME280;60679;48.888;15.544;2023-03-24T06:16:51;95430.53;;;11.98;58.58
72636;BME280;60679;48.888;15.544;2023-03-24T06:19:17;95432.41;;;11.98;58.45
72636;BME280;60679;48.888;15.544;2023-03-24T06:21:47;95428.56;;;11.94;58.58
72636;BME280;60679;48.888;15.544;2023-03-24T06:24:15;95430.53;;;11.98;58.69
72636;BME280;60679;48.888;15.544;2023-03-24T06:26:42;95431.78;;;12.12;58.56
72636;BME280;60679;48.888;15.544;2023-03-24T06:29:09;95427.28;;;12.23;58.79
72636;BME280;60679;48.888;15.544;2023-03-24T06:31:35;95430.03;;;12.28;58.39
72636;BME280;60679;48.888;15.544;2023-03-24T06:34:02;95424.72;;;12.33;58.51
72636;BME280;60679;48.888;15.544;2023-03-24T06:36:28;95424.16;;;12.36;58.65
72636;BME280;60679;48.888;15.544;2023-03-24T06:38:54;95421.81;;;12.45;58.65
72636;BME280;60679;48.888;15.544;2023-03-24T06:41:21;95420.41;;;12.64;58.42
72636;BME280;60679;48.888;15.544;2023-03-24T06:43:46;95412.69;;;12.83;58.20
72636;BME280;60679;48.888;15.544;2023-03-24T06:46:12;95423.41;;;12.99;58.10
72636;BME280;60679;48.888;15.544;2023-03-24T06:48:38;95419.72;;;13.10;58.08
72636;BME280;60679;48.888;15.544;2023-03-24T06:51:04;95425.25;;;13.25;58.00
72636;BME280;60679;48.888;15.544;2023-03-24T06:53:29;95424.25;;;13.37;57.91
72636;BME280;60679;48.888;15.544;2023-03-24T06:55:55;95430.00;;;13.50;57.79
72636;BME280;60679;48.888;15.544;2023-03-24T06:58:20;95430.09;;;13.65;57.81
72636;BME280;60679;48.888;15.544;2023-03-24T07:00:46;95428.03;;;13.82;57.70
72636;BME280;60679;48.888;15.544;2023-03-24T07:03:14;95438.38;;;13.96;57.75
72636;BME280;60679;48.888;15.544;2023-03-24T07:05:41;95435.47;;;14.12;57.69
72636;BME280;60679;48.888;15.544;2023-03-24T07:08:08;95429.31;;;14.32;57.53
72636;BME280;60679;48.888;15.544;2023-03-24T07:10:35;95426.91;;;14.45;57.34
72636;BME280;60679;48.888;15.544;2023-03-24T07:13:01;95428.28;;;14.53;57.23
72636;BME280;60679;48.888;15.544;2023-03-24T07:15:28;95425.28;;;14.60;57.21
72636;BME280;60679;48.888;15.544;2023-03-24T07:17:54;95428.28;;;14.58;57.35
72636;BME280;60679;48.888;15.544;2023-03-24T07:20:19;95425.56;;;14.58;57.38
72636;BME280;60679;48.888;15.544;2023-03-24T07:22:45;95432.09;;;14.62;57.38
72636;BME280;60679;48.888;15.544;2023-03-24T07:25:12;95433.72;;;14.58;57.34
72636;BME280;60679;48.888;15.544;2023-03-24T07:27:39;95425.81;;;14.57;57.34
72636;BME280;60679;48.888;15.544;2023-03-24T07:30:06;95425.28;;;14.60;57.33
72636;BME280;60679;48.888;15.544;2023-03-24T07:32:32;95413.63;;;14.74;57.19
72636;BME280;60679;48.888;15.544;2023-03-24T07:35:10;95409.28;;;14.93;56.80
72636;BME280;60679;48.888;15.544;2023-03-24T07:37:36;95425.06;;;15.12;56.63
72636;BME280;60679;48.888;15.544;2023-03-24T07:40:06;95415.78;;;15.43;56.04
72636;BME280;60679;48.888;15.544;2023-03-24T07:42:36;95414.91;;;15.78;55.51
72636;BME280;60679;48.888;15.544;2023-03-24T07:45:03;95418.66;;;16.02;55.10
72636;BME280;60679;48.888;15.544;2023-03-24T07:47:29;95423.13;;;16.32;54.60
72636;BME280;60679;48.888;15.544;2023-03-24T07:49:56;95421.34;;;16.66;54.25
72636;BME280;60679;48.888;15.544;2023-03-24T07:52:21;95426.91;;;16.90;53.72
72636;BME280;60679;48.888;15.544;2023-03-24T07:54:46;95426.81;;;17.00;53.73
72636;BME280;60679;48.888;15.544;2023-03-24T07:57:12;95425.78;;;16.96;53.83
72636;BME280;60679;48.888;15.544;2023-03-24T07:59:37;95432.66;;;16.83;54.09
72636;BME280;60679;48.888;15.544;2023-03-24T08:02:03;95433.34;;;16.65;54.12
72636;BME280;60679;48.888;15.544;2023-03-24T08:04:30;95435.88;;;16.46;54.64
72636;BME280;60679;48.888;15.544;2023-03-24T08:06:56;95428.91;;;16.20;54.95
72636;BME280;60679;48.888;15.544;2023-03-24T08:09:23;95429.72;;;16.21;54.94
72636;BME280;60679;48.888;15.544;2023-03-24T08:11:50;95425.75;;;16.52;54.29
72636;BME280;60679;48.888;15.544;2023-03-24T08:14:15;95413.78;;;16.92;53.53
72636;BME280;60679;48.888;15.544;2023-03-24T08:16:41;95420.06;;;17.26;52.97
72636;BME280;60679;48.888;15.544;2023-03-24T08:19:06;95412.75;;;17.55;52.54
72636;BME280;60679;48.888;15.544;2023-03-24T08:21:32;95414.06;;;17.58;52.10
72636;BME280;60679;48.888;15.544;2023-03-24T08:23:58;95403.56;;;17.70;52.39
72636;BME280;60679;48.888;15.544;2023-03-24T08:26:23;95397.03;;;17.89;51.91
72636;BME280;60679;48.888;15.544;2023-03-24T08:28:52;95397.63;;;18.10;51.75
72636;BME280;60679;48.888;15.544;2023-03-24T08:31:18;95398.47;;;18.29;51.12
72636;BME280;60679;48.888;15.544;2023-03-24T08:33:43;95396.88;;;18.47;51.08
72636;BME280;60679;48.888;15.544;2023-03-24T08:36:09;95398.16;;;18.55;50.96
72636;BME280;60679;48.888;15.544;2023-03-24T08:38:34;95395.94;;;18.75;50.32
72636;BME280;60679;48.888;15.544;2023-03-24T08:41:04;95390.09;;;19.00;49.67
72636;BME280;60679;48.888;15.544;2023-03-24T08:43:35;95392.91;;;19.28;49.48
72636;BME280;60679;48.888;15.544;2023-03-24T08:46:02;95389.41;;;19.87;48.47
72636;BME280;60679;48.888;15.544;2023-03-24T08:48:31;95386.34;;;20.56;47.87
72636;BME280;60679;48.888;15.544;2023-03-24T08:50:57;95379.28;;;21.36;46.85
72636;BME280;60679;48.888;15.544;2023-03-24T08:53:22;95382.59;;;22.08;45.90
72636;BME280;60679;48.888;15.544;2023-03-24T08:55:48;95386.03;;;22.95;44.84
72636;BME280;60679;48.888;15.544;2023-03-24T08:58:19;95387.31;;;23.67;43.70
72636;BME280;60679;48.888;15.544;2023-03-24T09:00:46;95381.00;;;24.21;42.83
72636;BME280;60679;48.888;15.544;2023-03-24T09:03:14;95381.34;;;24.02;43.18
72636;BME280;60679;48.888;15.544;2023-03-24T09:05:43;95383.66;;;23.92;43.25
72636;BME280;60679;48.888;15.544;2023-03-24T09:08:09;95378.97;;;23.92;43.14
72636;BME280;60679;48.888;15.544;2023-03-24T09:10:35;95378.09;;;24.18;42.39
72636;BME280;60679;48.888;15.544;2023-03-24T09:13:01;95378.84;;;24.27;42.25
72636;BME280;60679;48.888;15.544;2023-03-24T09:15:28;95369.41;;;24.28;42.31
72636;BME280;60679;48.888;15.544;2023-03-24T09:17:54;95373.53;;;24.22;41.79
72636;BME280;60679;48.888;15.544;2023-03-24T09:20:19;95389.38;;;23.78;42.48
72636;BME280;60679;48.888;15.544;2023-03-24T09:22:46;95383.28;;;23.47;42.46
72636;BME280;60679;48.888;15.544;2023-03-24T09:25:15;95383.28;;;22.95;42.47
72636;BME280;60679;48.888;15.544;2023-03-24T09:27:41;95387.97;;;22.78;42.51
72636;BME280;60679;48.888;15.544;2023-03-24T09:30:07;95376.63;;;22.71;42.59
72636;BME280;60679;48.888;15.544;2023-03-24T09:32:34;95375.03;;;22.87;42.62
72636;BME280;60679;48.888;15.544;2023-03-24T09:34:59;95367.41;;;23.44;41.73
72636;BME280;60679;48.888;15.544;2023-03-24T09:37:28;95371.66;;;24.63;39.81
72636;BME280;60679;48.888;15.544;2023-03-24T09:39:54;95374.78;;;25.65;37.92
72636;BME280;60679;48.888;15.544;2023-03-24T09:42:25;95384.75;;;24.75;39.14
72636;BME280;60679;48.888;15.544;2023-03-24T09:45:04;95367.19;;;24.21;39.99
72636;BME280;60679;48.888;15.544;2023-03-24T09:47:49;95370.94;;;23.70;40.51
72636;BME280;60679;48.888;15.544;2023-03-24T09:50:23;95376.47;;;23.53;40.91
72636;BME280;60679;48.888;15.544;2023-03-24T09:52:53;95375.50;;;23.32;40.89
72636;BME280;60679;48.888;15.544;2023-03-24T09:55:24;95375.19;;;22.90;41.65
72636;BME280;60679;48.888;15.544;2023-03-24T09:57:50;95372.25;;;23.21;41.30
72636;BME280;60679;48.888;15.544;2023-03-24T10:02:43;95371.28;;;23.34;41.21
72636;BME280;60679;48.888;15.544;2023-03-24T10:05:14;95368.69;;;23.12;41.12
72636;BME280;60679;48.888;15.544;2023-03-24T10:07:54;95368.22;;;23.02;41.35
72636;BME280;60679;48.888;15.544;2023-03-24T10:11:12;95365.72;;;22.49;41.91
72636;BME280;60679;48.888;15.544;2023-03-24T10:13:19;95354.59;;;22.06;42.20
72636;BME280;60679;48.888;15.544;2023-03-24T10:16:09;95352.78;;;21.62;42.71
72636;BME280;60679;48.888;15.544;2023-03-24T10:18:42;95349.88;;;21.67;42.63
72636;BME280;60679;48.888;15.544;2023-03-24T10:21:16;95338.34;;;21.56;42.98
72636;BME280;60679;48.888;15.544;2023-03-24T10:24:05;95342.44;;;21.14;43.49
72636;BME280;60679;48.888;15.544;2023-03-24T10:26:46;95349.91;;;21.00;43.61
72636;BME280;60679;48.888;15.544;2023-03-24T10:29:31;95352.63;;;20.78;43.37
72636;BME280;60679;48.888;15.544;2023-03-24T10:32:17;95357.84;;;20.30;44.19
72636;BME280;60679;48.888;15.544;2023-03-24T10:34:47;95360.91;;;20.29;44.53
72636;BME280;60679;48.888;15.544;2023-03-24T10:37:16;95361.28;;;20.22;44.43
72636;BME280;60679;48.888;15.544;2023-03-24T10:39:42;95366.06;;;20.30;44.11
72636;BME280;60679;48.888;15.544;2023-03-24T10:42:17;95365.94;;;20.35;44.60
72636;BME280;60679;48.888;15.544;2023-03-24T10:44:46;95363.31;;;20.30;44.42
72636;BME280;60679;48.888;15.544;2023-03-24T10:47:13;95364.44;;;20.02;45.16
72636;BME280;60679;48.888;15.544;2023-03-24T10:49:51;95355.81;;;19.81;45.29
72636;BME280;60679;48.888;15.544;2023-03-24T10:52:17;95362.69;;;19.79;44.95
72636;BME280;60679;48.888;15.544;2023-03-24T10:54:53;95359.34;;;19.82;45.17
72636;BME280;60679;48.888;15.544;2023-03-24T10:57:19;95356.53;;;19.87;45.24
72636;BME280;60679;48.888;15.544;2023-03-24T11:00:04;95356.94;;;19.80;45.42
72636;BME280;60679;48.888;15.544;2023-03-24T11:02:43;95348.09;;;19.83;45.30
72636;BME280;60679;48.888;15.544;2023-03-24T11:05:17;95356.53;;;19.87;45.15
72636;BME280;60679;48.888;15.544;2023-03-24T11:07:46;95360.59;;;20.03;45.15
72636;BME280;60679;48.888;15.544;2023-03-24T11:10:17;95355.31;;;20.34;44.83
72636;BME280;60679;48.888;15.544;2023-03-24T11:15:21;95347.94;;;21.14;43.51
72636;BME280;60679;48.888;15.544;2023-03-24T11:17:52;95350.72;;;21.45;42.88
72636;BME280;60679;48.888;15.544;2023-03-24T11:20:24;95349.88;;;21.36;43.07
72636;BME280;60679;48.888;15.544;2023-03-24T11:23:02;95353.22;;;21.55;43.47
72636;BME280;60679;48.888;15.544;2023-03-24T11:25:31;95350.81;;;21.62;43.54
72636;BME280;60679;48.888;15.544;2023-03-24T11:28:08;95353.53;;;21.32;43.46
72636;BME280;60679;48.888;15.544;2023-03-24T11:30:52;95350.44;;;21.02;43.48
72636;BME280;60679;48.888;15.544;2023-03-24T11:33:25;95346.16;;;21.10;43.78
72636;BME280;60679;48.888;15.544;2023-03-24T11:35:52;95351.38;;;21.42;43.10
72636;BME280;60679;48.888;15.544;2023-03-24T11:38:31;95345.75;;;21.47;43.10
72636;BME280;60679;48.888;15.544;2023-03-24T11:40:59;95339.50;;;21.33;43.40
72636;BME280;60679;48.888;15.544;2023-03-24T11:43:28;95345.78;;;20.89;43.81
72636;BME280;60679;48.888;15.544;2023-03-24T11:46:04;95350.91;;;20.46;44.26
72636;BME280;60679;48.888;15.544;2023-03-24T11:48:36;95345.44;;;20.19;44.43
72636;BME280;60679;48.888;15.544;2023-03-24T11:51:04;95343.72;;;20.23;44.44
72636;BME280;60679;48.888;15.544;2023-03-24T11:53:45;95342.81;;;20.14;44.56
72636;BME280;60679;48.888;15.544;2023-03-24T12:01:45;95344.44;;;19.88;44.83
72636;BME280;60679;48.888;15.544;2023-03-24T12:07:36;95347.78;;;19.57;45.70
72636;BME280;60679;48.888;15.544;2023-03-24T12:10:24;95341.94;;;19.32;45.85
72636;BME280;60679;48.888;15.544;2023-03-24T12:13:08;95343.88;;;18.99;46.44
72636;BME280;60679;48.888;15.544;2023-03-24T12:18:50;95345.16;;;18.69;46.85
72636;BME280;60679;48.888;15.544;2023-03-24T12:21:45;95346.75;;;18.33;47.30
72636;BME280;60679;48.888;15.544;2023-03-24T12:26:54;95346.06;;;18.04;47.36
72636;BME280;60679;48.888;15.544;2023-03-24T12:29:51;95353.47;;;18.03;47.60
72636;BME280;60679;48.888;15.544;2023-03-24T12:32:36;95363.25;;;17.85;47.52
72636;BME280;60679;48.888;15.544;2023-03-24T12:38:53;95364.72;;;17.20;47.94
72636;BME280;60679;48.888;15.544;2023-03-24T12:52:28;95364.16;;;17.23;47.68
72636;BME280;60679;48.888;15.544;2023-03-24T12:55:16;95367.44;;;17.20;47.62
72636;BME280;60679;48.888;15.544;2023-03-24T12:58:13;95359.06;;;17.12;47.96
72636;BME280;60679;48.888;15.544;2023-03-24T13:00:57;95366.91;;;16.90;48.12
72636;BME280;60679;48.888;15.544;2023-03-24T13:06:34;95369.44;;;16.32;49.07
72636;BME280;60679;48.888;15.544;2023-03-24T13:09:16;95368.19;;;16.20;49.26
72636;BME280;60679;48.888;15.544;2023-03-24T13:17:52;95378.63;;;15.97;49.32
72636;BME280;60679;48.888;15.544;2023-03-24T13:20:32;95381.91;;;15.94;49.59
72636;BME280;60679;48.888;15.544;2023-03-24T13:26:01;95380.63;;;15.77;49.77
72636;BME280;60679;48.888;15.544;2023-03-24T13:28:44;95375.47;;;15.65;49.72
72636;BME280;60679;48.888;15.544;2023-03-24T13:31:13;95384.00;;;14.63;51.13
72636;BME280;60679;48.888;15.544;2023-03-24T13:33:40;95385.53;;;14.23;52.13
72636;BME280;60679;48.888;15.544;2023-03-24T13:36:29;95392.03;;;14.12;52.37
72636;BME280;60679;48.888;15.544;2023-03-24T13:38:59;95391.78;;;14.29;52.24
72636;BME280;60679;48.888;15.544;2023-03-24T13:41:32;95393.91;;;14.12;52.23
72636;BME280;60679;48.888;15.544;2023-03-24T13:44:05;95377.63;;;14.07;52.98
72636;BME280;60679;48.888;15.544;2023-03-24T13:46:35;95384.41;;;14.14;53.33
72636;BME280;60679;48.888;15.544;2023-03-24T13:49:04;95378.50;;;14.22;53.21
72636;BME280;60679;48.888;15.544;2023-03-24T13:51:33;95372.25;;;14.22;53.26
72636;BME280;60679;48.888;15.544;2023-03-24T13:54:19;95373.31;;;14.16;53.67
72636;BME280;60679;48.888;15.544;2023-03-24T13:57:03;95374.66;;;14.18;53.71
72636;BME280;60679;48.888;15.544;2023-03-24T13:59:56;95382.06;;;14.43;53.46
72636;BME280;60679;48.888;15.544;2023-03-24T14:15:33;95350.28;;;15.14;52.82
72636;BME280;60679;48.888;15.544;2023-03-24T14:23:44;95358.72;;;14.57;54.66
72636;BME280;60679;48.888;15.544;2023-03-24T14:28:55;95355.44;;;14.40;54.92
72636;BME280;60679;48.888;15.544;2023-03-24T14:31:32;95353.19;;;14.07;55.01
72636;BME280;60679;48.888;15.544;2023-03-24T14:34:13;95360.94;;;13.68;55.76
72636;BME280;60679;48.888;15.544;2023-03-24T14:36:41;95347.34;;;13.11;55.78
72636;BME280;60679;48.888;15.544;2023-03-24T14:41:40;95363.63;;;12.15;57.39
72636;BME280;60679;48.888;15.544;2023-03-24T14:44:06;95357.50;;;11.98;58.11
72636;BME280;60679;48.888;15.544;2023-03-24T14:46:38;95338.28;;;12.00;58.61
72636;BME280;60679;48.888;15.544;2023-03-24T14:54:28;95327.53;;;12.37;58.68
72636;BME280;60679;48.888;15.544;2023-03-24T14:56:56;95324.09;;;12.46;58.64
72636;BME280;60679;48.888;15.544;2023-03-24T15:05:14;95338.16;;;12.80;58.74
72636;BME280;60679;48.888;15.544;2023-03-24T15:07:41;95343.56;;;12.75;58.62
72636;BME280;60679;48.888;15.544;2023-03-24T15:10:17;95354.03;;;12.61;59.09
72636;BME280;60679;48.888;15.544;2023-03-24T15:12:47;95353.72;;;12.58;59.20
72636;BME280;60679;48.888;15.544;2023-03-24T15:15:23;95355.00;;;12.50;59.49
72636;BME280;60679;48.888;15.544;2023-03-24T15:17:50;95350.56;;;12.39;59.57
72636;BME280;60679;48.888;15.544;2023-03-24T15:20:24;95343.69;;;11.73;59.89
72636;BME280;60679;48.888;15.544;2023-03-24T15:22:51;95336.81;;;11.22;61.12
72636;BME280;60679;48.888;15.544;2023-03-24T15:25:25;95324.50;;;10.93;61.30
72636;BME280;60679;48.888;15.544;2023-03-24T15:27:52;95320.84;;;10.82;61.90
72636;BME280;60679;48.888;15.544;2023-03-24T15:30:18;95299.19;;;10.77;62.08